Time;durP1;ratioP1;P1;durP2;ratioP2;P2;SDS_P1;SDS_P2;PMS_P1;PMS_P2;Temp;Humidity;BMP_temperature;BMP_pressure;BME280_temperature;BME280_humidity;BME280_pressure;Samples;Min_cycle;Max_cycle;Signal;HPM_P1;HPM_P2
2023/01/03 00:02:00;;;;;;;13.18;10.95;;;;;;;21.16;44.19;95856.00;4982983;28;20050;-61
2023/01/03 00:04:25;;;;;;;14.00;10.43;;;;;;;21.73;44.31;95963.00;4970371;28;20061;-61
2023/01/03 00:06:51;;;;;;;13.43;10.65;;;;;;;21.73;44.31;95952.13;4983873;28;20050;-61
2023/01/03 00:09:19;;;;;;;14.23;11.13;;;;;;;21.65;44.25;95951.03;5014395;28;20428;-60
2023/01/03 00:14:35;;;;;;;11.32;10.07;;;;;;;21.69;44.33;95946.16;4983897;28;20128;-61
2023/01/03 00:17:02;;;;;;;13.07;10.50;;;;;;;21.55;44.50;95930.63;4966249;28;20057;-62
2023/01/03 00:19:29;;;;;;;13.32;10.85;;;;;;;21.36;44.41;95907.63;4981676;28;20567;-61
2023/01/03 00:21:55;;;;;;;14.77;11.75;;;;;;;21.08;44.20;95871.19;4983242;28;20105;-62
2023/01/03 00:24:20;;;;;;;14.70;11.25;;;;;;;20.93;44.10;95858.16;4981173;28;20474;-61
2023/01/03 00:26:46;;;;;;;13.43;10.68;;;;;;;21.60;44.25;95943.56;4981716;28;20038;-61
2023/01/03 00:29:11;;;;;;;14.15;11.40;;;;;;;21.41;44.38;95909.69;4985097;28;20034;-62
2023/01/03 00:31:37;;;;;;;12.55;10.63;;;;;;;21.02;44.31;95856.78;4987113;28;20093;-61
2023/01/03 00:34:03;;;;;;;13.77;10.57;;;;;;;21.61;44.46;95950.47;4986214;28;20423;-62
2023/01/03 00:36:28;;;;;;;12.93;10.52;;;;;;;20.78;44.22;95824.88;4986261;28;20126;-61
2023/01/03 00:38:54;;;;;;;11.95;10.68;;;;;;;21.58;44.35;95951.41;4985995;28;21140;-61
2023/01/03 00:41:19;;;;;;;14.07;11.23;;;;;;;21.37;44.41;95914.56;4987654;28;20038;-63
2023/01/03 00:43:46;;;;;;;13.05;10.68;;;;;;;21.60;44.40;95959.88;4987493;28;20527;-62
2023/01/03 00:46:12;;;;;;;12.55;10.82;;;;;;;21.61;44.10;95945.03;4984994;28;20054;-61
2023/01/03 00:48:37;;;;;;;13.85;10.80;;;;;;;21.59;44.25;95942.06;4986474;28;20039;-61
2023/01/03 00:51:07;;;;;;;13.43;10.98;;;;;;;21.44;44.16;95957.63;4984886;28;20049;-62
2023/01/03 00:53:33;;;;;;;13.50;10.93;;;;;;;21.48;44.56;95933.78;4985181;28;20030;-61
2023/01/03 00:56:09;;;;;;;14.70;11.20;;;;;;;21.36;44.51;95913.06;4986149;28;20046;-61
2023/01/03 00:58:34;;;;;;;12.55;10.77;;;;;;;21.52;44.36;95940.50;5016306;28;20054;-61
2023/01/03 01:01:10;;;;;;;13.10;10.75;;;;;;;21.47;44.54;95940.41;4986412;28;20046;-61
2023/01/03 01:03:36;;;;;;;14.40;10.98;;;;;;;21.51;44.22;95954.56;4974477;28;20159;-62
2023/01/03 01:06:21;;;;;;;13.00;10.50;;;;;;;21.51;44.51;95946.41;4990934;28;20272;-60
2023/01/03 01:08:47;;;;;;;13.50;10.48;;;;;;;21.49;44.33;95932.53;4989731;28;20039;-60
2023/01/03 01:11:13;;;;;;;14.10;11.18;;;;;;;20.60;44.45;95819.66;4991940;28;20026;-65
2023/01/03 01:13:38;;;;;;;13.68;10.88;;;;;;;21.45;44.43;95931.97;4986853;28;20101;-59
2023/01/03 01:16:11;;;;;;;12.38;10.70;;;;;;;21.45;44.54;95932.75;4985313;28;20523;-60
2023/01/03 01:18:37;;;;;;;12.90;10.43;;;;;;;21.48;44.64;95931.06;4987156;28;20060;-59
2023/01/03 01:21:07;;;;;;;13.00;10.45;;;;;;;21.47;44.44;95924.09;4981125;28;20081;-60
2023/01/03 01:23:37;;;;;;;14.43;10.70;;;;;;;21.47;44.27;95924.09;4985315;28;20022;-60
2023/01/03 01:26:02;;;;;;;13.05;10.82;;;;;;;21.49;44.29;95957.75;4985240;28;20059;-62
2023/01/03 01:28:28;;;;;;;13.57;10.90;;;;;;;21.48;44.32;95926.34;5016662;28;20154;-64
2023/01/03 01:30:53;;;;;;;12.70;9.82;;;;;;;21.47;44.56;95989.31;4985907;28;20109;-61
2023/01/03 01:33:18;;;;;;;12.15;10.82;;;;;;;21.28;44.29;95900.34;4984286;28;20141;-62
2023/01/03 01:35:44;;;;;;;15.02;10.95;;;;;;;21.35;44.43;95914.28;4983936;28;20534;-61
2023/01/03 01:38:09;;;;;;;13.27;10.65;;;;;;;21.42;44.56;95918.56;4985141;28;20033;-61
2023/01/03 01:40:35;;;;;;;13.77;10.70;;;;;;;20.68;44.03;95805.22;4985176;28;20042;-62
2023/01/03 01:46:16;;;;;;;13.65;11.07;;;;;;;21.41;44.42;95923.25;4984425;28;20148;-61
2023/01/03 01:48:41;;;;;;;13.82;11.10;;;;;;;21.36;44.39;95907.63;4985594;28;20051;-63
2023/01/03 01:51:07;;;;;;;12.88;11.18;;;;;;;21.28;44.47;95895.66;5016477;28;20061;-61
2023/01/03 01:53:33;;;;;;;13.52;10.80;;;;;;;21.36;44.27;95899.50;4985855;28;20062;-61
2023/01/03 01:55:59;;;;;;;13.82;10.75;;;;;;;20.19;44.44;95723.13;4993291;28;20612;-62
2023/01/03 01:58:28;;;;;;;12.65;10.68;;;;;;;20.66;44.43;95791.38;4994103;28;20128;-61
2023/01/03 02:00:53;;;;;;;13.93;11.05;;;;;;;21.44;44.38;95914.16;4984229;28;20062;-61
2023/01/03 02:03:19;;;;;;;13.73;11.20;;;;;;;21.22;44.36;95881.25;4984814;28;20053;-62
2023/01/03 02:05:47;;;;;;;12.65;10.90;;;;;;;21.30;44.37;95892.47;4985299;28;20030;-61
2023/01/03 02:08:12;;;;;;;12.65;10.27;;;;;;;21.19;44.50;95892.31;4968384;28;21008;-61
2023/01/03 02:10:44;;;;;;;13.10;10.85;;;;;;;21.33;44.39;95905.88;4986036;28;20034;-61
2023/01/03 02:13:36;;;;;;;14.38;11.38;;;;;;;21.26;44.40;95895.41;4991819;28;20515;-60
2023/01/03 02:16:30;;;;;;;13.77;11.32;;;;;;;21.35;44.63;95906.13;4983281;28;20042;-61
2023/01/03 02:19:46;;;;;;;13.98;10.98;;;;;;;21.31;44.32;95905.56;5011659;28;20104;-61
2023/01/03 02:22:11;;;;;;;13.57;11.15;;;;;;;21.40;44.43;95913.59;4935744;29;20131;-62
2023/01/03 02:25:07;;;;;;;12.98;11.57;;;;;;;21.39;44.46;95914.84;4933210;29;20995;-61
2023/01/03 02:27:42;;;;;;;13.48;11.07;;;;;;;20.79;44.31;95820.91;4963365;28;20082;-60
2023/01/03 02:30:16;;;;;;;12.88;10.70;;;;;;;20.78;44.44;95825.63;4984735;28;20050;-61
2023/01/03 02:33:14;;;;;;;13.57;11.43;;;;;;;21.35;44.53;95911.56;4984569;28;20411;-61
2023/01/03 02:35:42;;;;;;;12.98;11.05;;;;;;;21.35;44.59;95911.56;4920145;28;20038;-64
2023/01/03 02:38:13;;;;;;;14.10;11.38;;;;;;;20.07;44.68;95718.75;4984778;28;20069;-62
2023/01/03 02:41:01;;;;;;;15.23;11.13;;;;;;;20.96;44.36;95851.78;5015376;28;20049;-61
2023/01/03 02:43:35;;;;;;;14.05;10.90;;;;;;;21.19;44.31;95887.63;4978032;28;20478;-61
2023/01/03 02:46:30;;;;;;;13.98;11.65;;;;;;;20.77;44.62;95818.69;4998618;28;20525;-61
2023/01/03 02:49:00;;;;;;;13.10;11.38;;;;;;;21.32;44.67;95925.38;5011976;28;20053;-62
2023/01/03 02:51:55;;;;;;;13.70;11.10;;;;;;;21.16;44.26;95877.72;4966965;28;20108;-62
2023/01/03 02:54:26;;;;;;;13.55;11.48;;;;;;;21.31;44.32;95911.00;4981058;28;20066;-61
2023/01/03 02:57:13;;;;;;;14.30;11.82;;;;;;;21.21;44.68;95884.44;4963201;28;20089;-61
2023/01/03 02:59:46;;;;;;;13.60;11.95;;;;;;;21.26;44.27;95887.25;4992664;28;20140;-60
2023/01/03 03:02:12;;;;;;;12.63;10.80;;;;;;;20.71;44.52;95803.53;5014823;28;20034;-60
2023/01/03 03:04:38;;;;;;;13.88;11.57;;;;;;;21.15;44.55;95873.53;4983952;28;20050;-61
2023/01/03 03:07:07;;;;;;;14.55;11.27;;;;;;;21.29;44.69;95899.16;4998846;28;20439;-62
2023/01/03 03:13:11;;;;;;;13.82;11.32;;;;;;;21.22;44.49;95886.69;4984150;28;20577;-61
2023/01/03 03:15:01;;;;;;;13.55;11.23;;;;;;;21.26;44.51;95892.69;4972720;28;20428;-61
2023/01/03 03:17:27;;;;;;;13.95;11.32;;;;;;;21.08;44.56;95871.19;4982532;28;20495;-61
2023/01/03 03:25:56;;;;;;;14.40;11.55;;;;;;;21.09;44.34;95867.28;5010949;28;20057;-61
2023/01/03 03:28:36;;;;;;;15.10;12.15;;;;;;;21.24;44.48;95895.13;4997125;28;20061;-60
2023/01/03 03:31:10;;;;;;;13.13;11.48;;;;;;;21.27;44.55;95894.19;4982400;28;20054;-60
2023/01/03 03:33:38;;;;;;;13.32;11.43;;;;;;;;;;4984689;28;20052;-62
2023/01/03 03:36:23;;;;;;;13.50;11.35;;;;;;;20.51;44.67;95779.06;4982427;28;20050;-60
2023/01/03 03:38:49;;;;;;;14.60;11.55;;;;;;;21.12;44.49;95909.78;4985582;28;20050;-63
2023/01/03 03:47:17;;;;;;;13.85;11.48;;;;;;;21.11;44.33;95886.53;4982365;28;20605;-61
2023/01/03 03:49:43;;;;;;;14.88;11.52;;;;;;;21.22;44.58;95913.84;4979751;28;20137;-61
2023/01/03 03:52:14;;;;;;;13.85;11.57;;;;;;;21.21;44.24;95906.94;4982525;28;20077;-60
2023/01/03 03:54:40;;;;;;;13.38;10.95;;;;;;;21.22;44.40;95919.28;5014896;28;20053;-62
2023/01/03 03:57:12;;;;;;;15.15;12.10;;;;;;;21.23;44.47;95904.50;4959257;28;20061;-62
2023/01/03 03:59:38;;;;;;;15.02;11.57;;;;;;;21.11;44.58;95885.81;4979800;28;20074;-61
2023/01/03 04:02:04;;;;;;;13.77;11.48;;;;;;;21.19;44.67;95898.50;4979747;28;20554;-61
2023/01/03 04:04:39;;;;;;;14.68;12.20;;;;;;;21.19;44.44;95898.50;5001506;28;20125;-61
2023/01/03 04:07:04;;;;;;;14.63;11.95;;;;;;;21.13;44.54;95884.09;4987055;28;20050;-61
2023/01/03 04:09:30;;;;;;;15.35;12.32;;;;;;;21.29;44.54;95897.16;5003470;28;20057;-63
2023/01/03 04:11:55;;;;;;;15.13;12.32;;;;;;;21.34;44.27;95893.75;5008406;28;20154;-60
2023/01/03 04:14:21;;;;;;;14.63;12.45;;;;;;;21.36;44.24;95896.78;4991018;28;20045;-60
2023/01/03 04:16:46;;;;;;;15.00;12.48;;;;;;;20.50;44.08;95767.44;4993402;28;20054;-63
2023/01/03 04:19:12;;;;;;;15.75;12.27;;;;;;;21.40;44.12;95886.44;4991208;28;20812;-60
2023/01/03 04:21:37;;;;;;;14.15;12.25;;;;;;;21.35;44.02;95884.41;4987550;28;20136;-60
2023/01/03 04:24:03;;;;;;;15.98;12.77;;;;;;;21.51;43.81;95902.94;4987232;28;20061;-61
2023/01/03 04:26:29;;;;;;;16.13;12.55;;;;;;;21.50;43.78;95896.00;5015815;28;20030;-61
2023/01/03 04:28:54;;;;;;;14.75;12.52;;;;;;;21.59;43.61;95898.56;4986524;28;20038;-61
2023/01/03 04:31:20;;;;;;;13.93;11.88;;;;;;;21.18;43.58;95836.50;4985079;28;20061;-62
2023/01/03 04:33:45;;;;;;;15.13;13.07;;;;;;;21.64;43.53;95906.03;4985840;28;20050;-61
2023/01/03 04:36:10;;;;;;;15.65;13.25;;;;;;;21.68;43.64;95901.16;5018114;28;20260;-62
2023/01/03 04:38:36;;;;;;;15.70;12.88;;;;;;;21.59;43.32;95912.16;4986515;28;20026;-60
2023/01/03 04:41:07;;;;;;;15.90;12.52;;;;;;;21.79;43.31;95907.44;5003082;28;20034;-61
2023/01/03 04:46:17;;;;;;;15.77;13.48;;;;;;;21.66;42.93;95887.31;4989352;28;20061;-62
2023/01/03 04:48:42;;;;;;;15.80;13.05;;;;;;;21.80;42.85;95929.97;4952171;28;20482;-61
2023/01/03 04:51:08;;;;;;;15.52;13.05;;;;;;;21.74;42.96;95904.69;4987054;28;20056;-62
2023/01/03 04:53:33;;;;;;;15.27;12.80;;;;;;;21.78;42.92;95922.28;4966623;28;20030;-61
2023/01/03 04:55:59;;;;;;;16.25;13.18;;;;;;;21.92;43.05;95943.94;4978250;28;20055;-62
2023/01/03 04:58:24;;;;;;;14.93;12.55;;;;;;;22.18;42.36;95939.31;5012575;28;20074;-61
2023/01/03 05:00:50;;;;;;;15.90;13.55;;;;;;;21.86;42.54;95906.31;4986677;28;20460;-61
2023/01/03 05:03:15;;;;;;;15.25;12.52;;;;;;;21.96;42.65;95939.06;4980673;28;21560;-62
2023/01/03 05:05:41;;;;;;;16.02;12.80;;;;;;;21.29;42.69;95837.41;5013013;28;20466;-61
2023/01/03 05:08:07;;;;;;;16.42;13.55;;;;;;;21.56;42.67;95872.34;4986318;28;20040;-61
2023/01/03 05:10:33;;;;;;;15.95;13.50;;;;;;;22.12;42.39;95935.78;4986618;28;20573;-62
2023/01/03 05:12:59;;;;;;;15.40;13.40;;;;;;;22.06;42.44;95936.94;4986226;28;20043;-62
2023/01/03 05:15:28;;;;;;;16.45;13.95;;;;;;;22.19;42.12;95946.22;4980983;28;20109;-62
2023/01/03 05:17:54;;;;;;;15.90;12.85;;;;;;;22.11;42.31;95950.59;4985845;28;20062;-62
2023/01/03 05:25:51;;;;;;;17.48;13.73;;;;;;;21.84;42.26;95914.19;4980195;28;20481;-62
2023/01/03 05:28:20;;;;;;;16.48;13.65;;;;;;;21.97;42.12;95907.94;4984594;28;20162;-61
2023/01/03 05:30:46;;;;;;;17.40;14.40;;;;;;;22.32;41.73;95964.97;4986979;28;20042;-62
2023/01/03 05:33:11;;;;;;;18.50;14.70;;;;;;;22.37;41.50;95945.94;4984851;28;20065;-61
2023/01/03 05:35:37;;;;;;;17.90;14.52;;;;;;;22.23;42.16;95963.13;4985984;28;20458;-61
2023/01/03 05:38:02;;;;;;;16.05;13.77;;;;;;;21.97;41.84;95910.66;4985896;28;20049;-61
2023/01/03 05:40:28;;;;;;;18.13;14.98;;;;;;;22.14;41.97;95938.75;4985090;28;20050;-60
2023/01/03 05:42:53;;;;;;;16.92;13.88;;;;;;;22.10;42.23;95937.47;4986380;28;20045;-60
2023/01/03 05:45:24;;;;;;;18.23;14.75;;;;;;;22.19;41.92;95929.91;4986894;28;20140;-60
2023/01/03 05:47:49;;;;;;;16.70;14.00;;;;;;;22.20;42.01;95942.28;4985671;28;20077;-61
2023/01/03 05:50:15;;;;;;;18.75;14.77;;;;;;;22.06;41.78;95910.50;4985928;28;20065;-63
2023/01/03 05:52:40;;;;;;;18.33;14.80;;;;;;;22.08;41.81;95916.19;4986169;28;20053;-61
2023/01/03 05:55:06;;;;;;;18.25;15.48;;;;;;;21.95;41.58;95877.72;4985651;28;20212;-62
2023/01/03 05:57:31;;;;;;;18.27;15.45;;;;;;;22.22;41.76;95937.13;4985030;28;20046;-62
2023/01/03 05:59:57;;;;;;;17.27;15.32;;;;;;;22.34;41.46;95940.72;4987821;28;20041;-62
2023/01/03 06:02:22;;;;;;;18.38;15.45;;;;;;;22.39;41.67;95976.19;4993865;28;20486;-61
2023/01/03 06:04:48;;;;;;;19.08;14.75;;;;;;;22.64;40.64;95926.41;4985385;28;20514;-61
2023/01/03 06:07:13;;;;;;;19.30;15.57;;;;;;;22.38;41.86;95947.47;4979972;28;20046;-61
2023/01/03 06:09:38;;;;;;;19.00;15.88;;;;;;;22.38;41.54;95925.69;4983488;28;20038;-61
2023/01/03 06:12:04;;;;;;;16.60;14.50;;;;;;;22.87;40.54;95949.88;4985678;28;20439;-62
2023/01/03 06:14:29;;;;;;;17.40;14.73;;;;;;;22.76;41.15;95933.44;4991509;28;20133;-62
2023/01/03 06:19:39;;;;;;;16.92;14.65;;;;;;;23.37;40.48;95930.69;4978869;28;20536;-60
2023/01/03 06:22:04;;;;;;;17.33;14.98;;;;;;;23.69;40.44;95964.84;4965563;28;20039;-62
2023/01/03 06:24:30;;;;;;;17.67;14.10;;;;;;;23.73;40.08;95949.75;4986122;28;20129;-61
2023/01/03 06:26:55;;;;;;;18.17;14.80;;;;;;;23.81;40.69;95969.91;4981041;28;20101;-60
2023/01/03 06:29:21;;;;;;;18.48;14.55;;;;;;;23.73;41.22;95949.00;4981640;28;20087;-61
2023/01/03 06:31:46;;;;;;;18.48;15.68;;;;;;;24.09;40.29;95971.47;4983118;28;20050;-62
2023/01/03 06:34:12;;;;;;;18.23;15.20;;;;;;;24.13;41.21;95961.09;4966366;28;20104;-61
2023/01/03 06:36:37;;;;;;;16.50;14.68;;;;;;;24.26;41.73;95957.88;4984832;28;20046;-60
2023/01/03 06:39:03;;;;;;;18.98;15.30;;;;;;;24.20;41.33;95959.84;4983523;28;20074;-61
2023/01/03 06:41:28;;;;;;;17.67;15.57;;;;;;;24.17;40.60;95964.34;4984952;28;20190;-61
2023/01/03 06:43:54;;;;;;;18.77;15.98;;;;;;;24.16;40.80;95965.56;4984625;28;20638;-61
2023/01/03 06:54:34;;;;;;;17.02;15.20;;;;;;;24.55;39.95;95969.16;4982394;28;20607;-61
2023/01/03 06:56:59;;;;;;;18.73;15.48;;;;;;;24.54;39.54;95973.13;4997533;28;20136;-61
2023/01/03 06:59:25;;;;;;;18.08;15.32;;;;;;;24.02;39.85;95944.69;4982984;28;20041;-61
2023/01/03 07:01:51;;;;;;;18.70;16.42;;;;;;;24.33;40.11;95985.47;4982101;28;20046;-62
2023/01/03 07:04:16;;;;;;;18.17;16.10;;;;;;;24.44;39.11;95958.22;4979863;28;20185;-61
2023/01/03 07:06:42;;;;;;;19.05;15.35;;;;;;;24.36;38.99;95902.59;4981212;28;20514;-60
2023/01/03 07:09:07;;;;;;;17.70;15.40;;;;;;;24.78;38.78;95959.75;4980048;28;20088;-60
2023/01/03 07:11:33;;;;;;;17.95;15.57;;;;;;;25.01;38.50;95981.91;4981656;28;20030;-61
2023/01/03 07:13:59;;;;;;;19.35;16.00;;;;;;;24.99;38.64;95976.22;4998111;28;20276;-61
2023/01/03 07:16:33;;;;;;;19.15;16.38;;;;;;;25.13;38.07;95996.34;4984361;28;20061;-59
2023/01/03 07:18:58;;;;;;;18.40;16.38;;;;;;;25.28;38.27;96003.03;4984904;28;20039;-59
2023/01/03 07:21:25;;;;;;;18.90;16.90;;;;;;;25.39;37.62;95994.81;4983349;28;20081;-59
2023/01/03 07:23:57;;;;;;;19.45;16.40;;;;;;;25.41;37.91;96003.25;4984227;28;20108;-60
2023/01/03 07:26:23;;;;;;;18.30;15.80;;;;;;;25.24;37.95;95986.13;4981844;28;20026;-61
2023/01/03 07:28:49;;;;;;;18.73;16.60;;;;;;;25.50;37.76;96030.34;4984145;28;20516;-61
2023/01/03 07:31:14;;;;;;;20.67;17.38;;;;;;;25.46;37.67;96002.53;4984567;28;20050;-61
2023/01/03 07:33:40;;;;;;;23.00;17.95;;;;;;;25.59;37.62;96010.94;4965531;28;20046;-61
2023/01/03 07:36:09;;;;;;;20.63;17.10;;;;;;;25.06;37.20;95915.56;4983064;28;20057;-61
2023/01/03 07:38:35;;;;;;;20.25;17.77;;;;;;;25.74;37.48;96011.44;4977327;28;20506;-60
2023/01/03 07:41:01;;;;;;;19.90;17.38;;;;;;;25.11;37.24;95895.69;4980242;28;20046;-61
2023/01/03 07:43:35;;;;;;;21.35;17.58;;;;;;;25.65;37.16;95981.63;4980322;28;20576;-61
2023/01/03 07:46:13;;;;;;;21.45;17.80;;;;;;;25.86;37.28;96003.47;4979842;28;20050;-62
2023/01/03 07:48:38;;;;;;;20.90;18.42;;;;;;;25.85;37.53;96007.44;4978258;28;20053;-63
2023/01/03 07:51:05;;;;;;;21.00;17.88;;;;;;;25.75;37.25;96002.00;4981501;28;20046;-62
2023/01/03 07:53:30;;;;;;;19.80;17.70;;;;;;;25.79;37.17;96009.44;4979903;28;20404;-62
2023/01/03 07:56:03;;;;;;;19.77;17.67;;;;;;;25.71;37.15;96001.50;4964448;28;20081;-62
2023/01/03 07:58:28;;;;;;;22.27;18.70;;;;;;;25.70;37.50;96006.25;4980520;28;20038;-62
2023/01/03 08:00:54;;;;;;;21.73;18.27;;;;;;;25.56;37.47;96012.72;4979396;28;20100;-63
2023/01/03 08:03:19;;;;;;;23.27;19.00;;;;;;;25.52;37.86;96006.00;4980623;28;20125;-63
2023/01/03 08:05:44;;;;;;;20.83;18.60;;;;;;;25.51;37.78;95999.03;4982750;28;20030;-62
2023/01/03 08:08:10;;;;;;;20.38;17.60;;;;;;;25.26;37.95;95983.66;4983199;28;20045;-62
2023/01/03 08:13:20;;;;;;;21.33;18.17;;;;;;;25.31;38.41;95993.84;4982973;28;20058;-61
2023/01/03 08:15:50;;;;;;;21.05;18.35;;;;;;;25.33;38.33;96005.78;4982794;28;20434;-63
2023/01/03 08:18:17;;;;;;;20.25;17.90;;;;;;;25.34;38.41;96001.03;4981357;28;20240;-62
2023/01/03 08:20:43;;;;;;;21.42;18.70;;;;;;;25.29;38.49;96020.94;4983746;28;20125;-60
2023/01/03 08:23:08;;;;;;;22.17;18.63;;;;;;;25.15;38.46;96000.03;4980351;28;20042;-61
2023/01/03 08:25:34;;;;;;;21.10;18.67;;;;;;;25.13;38.65;95997.06;4980528;28;20458;-60
2023/01/03 08:27:59;;;;;;;20.60;18.40;;;;;;;25.15;38.70;96010.25;5012399;28;20042;-61
2023/01/03 08:30:25;;;;;;;22.55;19.15;;;;;;;24.82;38.67;95977.41;4981547;28;20130;-61
2023/01/03 08:32:51;;;;;;;22.15;18.77;;;;;;;24.91;38.32;95991.56;4979100;28;20783;-60
2023/01/03 08:35:16;;;;;;;23.00;19.27;;;;;;;25.02;38.46;96002.53;5011392;28;20100;-59
2023/01/03 08:37:43;;;;;;;23.00;19.88;;;;;;;24.99;38.51;95992.59;4975408;28;20419;-60
2023/01/03 08:40:09;;;;;;;23.08;19.48;;;;;;;25.06;38.80;96007.75;4978155;28;20051;-59
2023/01/03 08:42:35;;;;;;;22.20;19.17;;;;;;;23.98;38.79;95851.38;4982598;28;20042;-60
2023/01/03 08:45:02;;;;;;;22.30;19.35;;;;;;;25.03;39.00;96004.03;4970850;28;20456;-61
2023/01/03 08:47:28;;;;;;;23.48;20.35;;;;;;;25.00;38.86;96010.47;4978871;28;20375;-60
2023/01/03 08:49:54;;;;;;;22.05;19.50;;;;;;;24.95;38.94;96000.25;4983744;28;20046;-63
2023/01/03 08:52:20;;;;;;;22.05;19.65;;;;;;;24.15;38.75;95871.25;4978806;28;20191;-62
2023/01/03 08:54:46;;;;;;;24.05;20.52;;;;;;;24.95;39.04;95997.53;4982148;28;20459;-61
2023/01/03 08:57:11;;;;;;;24.48;20.98;;;;;;;24.84;39.27;95978.41;4985098;28;20049;-61
2023/01/03 08:59:36;;;;;;;25.05;21.75;;;;;;;24.75;39.90;95974.41;4985620;28;20027;-61
2023/01/03 09:02:02;;;;;;;24.33;20.63;;;;;;;24.86;39.55;95984.09;4986288;28;20050;-62
2023/01/03 09:04:27;;;;;;;23.67;20.88;;;;;;;24.75;39.70;95977.13;4987073;28;20401;-60
2023/01/03 09:06:53;;;;;;;23.05;20.27;;;;;;;24.84;39.68;95992.06;4986866;28;20478;-62
2023/01/03 09:09:18;;;;;;;23.65;20.95;;;;;;;24.64;39.48;95963.47;4986344;28;20053;-61
2023/01/03 09:11:44;;;;;;;24.15;21.17;;;;;;;24.67;39.29;95976.16;5016159;28;20030;-61
2023/01/03 09:14:09;;;;;;;25.70;22.30;;;;;;;24.73;39.57;95979.63;4985363;28;20202;-61
2023/01/03 09:16:35;;;;;;;24.45;21.85;;;;;;;24.73;39.72;95979.63;4968804;28;20042;-62
2023/01/03 09:19:01;;;;;;;23.70;21.10;;;;;;;24.74;39.35;95981.88;4985016;28;20112;-61
2023/01/03 09:21:27;;;;;;;27.27;22.50;;;;;;;24.10;39.11;95885.66;4956471;28;20534;-62
2023/01/03 09:23:53;;;;;;;25.77;22.98;;;;;;;24.71;39.16;95971.16;4985806;28;20049;-62
2023/01/03 09:26:18;;;;;;;25.73;22.05;;;;;;;24.73;39.12;95974.16;5017827;28;20415;-62
2023/01/03 09:28:43;;;;;;;25.70;22.13;;;;;;;24.74;39.23;95976.41;4986318;28;20054;-62
2023/01/03 09:31:09;;;;;;;25.38;22.40;;;;;;;24.74;39.78;95964.72;4985954;28;20050;-64
2023/01/03 09:33:34;;;;;;;24.80;22.10;;;;;;;24.16;39.54;95883.69;4985733;28;20054;-63
2023/01/03 09:36:00;;;;;;;26.08;22.30;;;;;;;24.65;39.16;95952.06;4986099;28;20039;-62
2023/01/03 09:38:25;;;;;;;25.75;22.60;;;;;;;23.99;39.10;95861.06;4986108;28;20034;-62
2023/01/03 09:41:07;;;;;;;25.80;22.70;;;;;;;24.11;38.91;95859.88;4985495;28;20049;-62
2023/01/03 09:43:44;;;;;;;26.92;23.13;;;;;;;24.52;39.17;95931.91;4999310;28;20488;-62
2023/01/03 09:46:20;;;;;;;27.17;23.23;;;;;;;24.64;39.11;95928.69;5016291;28;20561;-62
2023/01/03 09:48:47;;;;;;;26.42;22.63;;;;;;;24.52;38.78;95910.81;4985650;28;20046;-61
2023/01/03 10:06:14;;;;;;;28.10;24.02;;;;;;;24.26;38.68;95844.00;4959366;28;20113;-63
2023/01/03 10:09:01;;;;;;;29.63;24.88;;;;;;;24.16;38.97;95823.63;4959189;28;20467;-62
2023/01/03 10:11:59;;;;;;;29.20;24.30;;;;;;;24.74;38.91;95899.16;4983705;28;20026;-61
2023/01/03 10:15:02;;;;;;;29.42;24.90;;;;;;;24.74;39.02;95888.22;4984218;28;20065;-60
2023/01/03 10:17:48;;;;;;;28.60;24.80;;;;;;;24.68;39.53;95901.13;4984388;28;20042;-60
2023/01/03 10:20:34;;;;;;;28.60;24.38;;;;;;;24.42;39.88;95890.47;4985315;28;20101;-60
2023/01/03 10:22:59;;;;;;;27.73;23.92;;;;;;;24.50;40.05;95882.53;4972236;28;20050;-60
2023/01/03 10:25:27;;;;;;;27.77;24.02;;;;;;;24.58;40.30;95888.97;4985268;28;20049;-60
2023/01/03 10:28:00;;;;;;;27.55;24.15;;;;;;;24.38;40.35;95867.38;4983051;28;20050;-60
2023/01/03 10:30:39;;;;;;;28.85;24.30;;;;;;;24.51;40.43;95881.28;4998532;28;20061;-60
2023/01/03 10:33:22;;;;;;;28.42;25.05;;;;;;;24.64;40.77;95878.81;4973323;28;20129;-61
2023/01/03 10:35:48;;;;;;;29.67;24.67;;;;;;;24.56;40.92;95855.97;4984035;28;20022;-60
2023/01/03 10:38:14;;;;;;;30.45;24.80;;;;;;;24.68;41.02;95862.91;4984756;28;20446;-61
2023/01/03 10:40:47;;;;;;;29.35;24.88;;;;;;;24.45;41.07;95845.03;4983638;28;20047;-60
2023/01/03 10:43:18;;;;;;;29.83;24.60;;;;;;;24.65;41.30;95851.00;4966673;28;20074;-59
2023/01/03 10:46:00;;;;;;;29.40;24.92;;;;;;;24.64;41.45;95862.41;4984066;28;20042;-61
2023/01/03 10:48:34;;;;;;;27.85;24.85;;;;;;;24.72;41.36;95863.41;5016085;28;20459;-60
2023/01/03 10:50:59;;;;;;;28.38;24.02;;;;;;;24.77;41.00;95843.53;4987584;28;20050;-60
2023/01/03 10:53:24;;;;;;;29.08;25.08;;;;;;;24.20;41.09;95727.84;4983635;28;20041;-60
2023/01/03 10:55:51;;;;;;;29.52;24.60;;;;;;;24.79;41.09;95819.94;4984478;28;20050;-60
2023/01/03 10:58:23;;;;;;;28.90;25.33;;;;;;;24.90;40.46;95831.59;5014776;28;20050;-60
2023/01/03 11:00:50;;;;;;;28.95;25.40;;;;;;;25.03;40.66;95822.91;4983529;28;20042;-60
2023/01/03 11:03:18;;;;;;;30.10;25.33;;;;;;;24.60;39.88;95741.75;4976975;28;20038;-60
2023/01/03 11:06:03;;;;;;;30.48;25.50;;;;;;;25.39;39.82;95828.00;4980931;28;20054;-61
2023/01/03 11:08:43;;;;;;;29.10;24.65;;;;;;;25.39;39.81;95823.28;4975551;28;20045;-60
2023/01/03 11:11:24;;;;;;;28.90;25.15;;;;;;;25.51;39.74;95819.25;4978247;28;20526;-60
2023/01/03 11:13:50;;;;;;;29.23;25.17;;;;;;;25.53;39.43;95805.81;4982878;28;20050;-61
2023/01/03 11:16:16;;;;;;;28.27;24.90;;;;;;;24.77;38.80;95706.94;4983497;28;20101;-60
2023/01/03 11:18:42;;;;;;;28.08;24.38;;;;;;;25.57;39.25;95806.28;4983174;28;20054;-60
2023/01/03 11:21:22;;;;;;;30.20;25.58;;;;;;;25.52;39.26;95798.88;4982784;28;20077;-59
2023/01/03 11:23:47;;;;;;;;;;;;;;;25.56;39.22;95798.59;5014403;28;20037;-59
2023/01/03 11:26:36;;;;;;;30.70;24.90;;;;;;;25.16;39.23;95727.44;4982436;28;20023;-61
2023/01/03 11:29:04;;;;;;;29.15;25.00;;;;;;;25.68;39.38;95794.59;5011476;28;20056;-60
2023/01/03 11:31:47;;;;;;;28.08;24.70;;;;;;;25.75;38.80;95777.63;4981437;28;20116;-62
2023/01/03 11:34:16;;;;;;;30.38;26.02;;;;;;;25.71;38.22;95711.50;4981044;28;20050;-60
2023/01/03 11:36:54;;;;;;;30.90;25.73;;;;;;;26.26;37.35;95761.09;5013901;28;20038;-61
2023/01/03 11:39:28;;;;;;;33.45;27.85;;;;;;;26.22;37.43;95757.88;4997578;28;20125;-62
2023/01/03 11:41:57;;;;;;;33.47;28.80;;;;;;;26.25;36.91;95754.88;4981683;28;20109;-62
2023/01/03 11:44:35;;;;;;;34.58;29.38;;;;;;;25.79;36.57;95652.25;5014879;28;20133;-62
2023/01/03 11:47:19;;;;;;;34.22;29.00;;;;;;;26.29;36.76;95745.16;4982198;28;20117;-60
2023/01/03 11:49:53;;;;;;;38.95;29.80;;;;;;;26.34;36.98;95757.34;4981695;28;20507;-61
2023/01/03 11:52:49;;;;;;;36.40;30.15;;;;;;;26.35;37.34;95737.66;4980516;28;20042;-61
2023/01/03 11:55:45;;;;;;;36.00;31.20;;;;;;;26.02;37.19;95715.25;4982337;28;20061;-62
2023/01/03 11:58:38;;;;;;;40.92;31.67;;;;;;;25.80;37.20;95715.41;5013754;28;20042;-62
2023/01/03 12:01:12;;;;;;;40.38;32.67;;;;;;;25.77;37.38;95721.16;4980789;28;20157;-60
2023/01/03 12:03:56;;;;;;;41.22;34.17;;;;;;;25.74;37.36;95726.88;4981035;28;20433;-60
2023/01/03 12:06:24;;;;;;;42.55;33.58;;;;;;;25.52;37.83;95732.47;4982243;28;20057;-60
2023/01/03 12:09:11;;;;;;;42.33;34.58;;;;;;;24.82;37.85;95622.97;4982795;28;20565;-60
2023/01/03 12:11:59;;;;;;;42.03;34.63;;;;;;;25.42;37.86;95720.34;4996692;28;20022;-60
2023/01/03 12:14:32;;;;;;;46.38;35.85;;;;;;;25.42;38.26;95717.59;4983124;28;20038;-61
2023/01/03 12:17:03;;;;;;;45.22;36.08;;;;;;;25.16;38.51;95692.66;4982132;28;20068;-60
2023/01/03 12:19:42;;;;;;;47.28;37.33;;;;;;;25.13;38.36;95699.13;5013660;28;20042;-59
2023/01/03 12:22:25;;;;;;;46.33;35.65;;;;;;;25.30;39.02;95738.06;4981220;28;20073;-60
2023/01/03 12:24:54;;;;;;;48.88;35.97;;;;;;;25.20;38.55;95708.78;4972232;28;20057;-60
2023/01/03 12:27:41;;;;;;;46.40;36.83;;;;;;;25.25;38.79;95708.75;4999432;28;20058;-61